sensor_id;sensor_type;location;lat;lon;timestamp;pressure;altitude;pressure_sealevel;temperature
28803;BMP280;15949;55.656;37.422;2023-05-24T00:00:36;99458.66;;;14.99
28803;BMP280;15949;55.656;37.422;2023-05-24T00:05:41;99458.25;;;14.97
28803;BMP280;15949;55.656;37.422;2023-05-24T00:10:47;99455.16;;;14.88
28803;BMP280;15949;55.656;37.422;2023-05-24T00:15:53;99459.56;;;14.80
28803;BMP280;15949;55.656;37.422;2023-05-24T00:20:59;99453.09;;;14.70
28803;BMP280;15949;55.656;37.422;2023-05-24T00:26:05;99448.16;;;14.65
28803;BMP280;15949;55.656;37.422;2023-05-24T00:31:11;99441.44;;;14.64
28803;BMP280;15949;55.656;37.422;2023-05-24T00:36:16;99437.31;;;14.63
28803;BMP280;15949;55.656;37.422;2023-05-24T00:41:22;99434.63;;;14.60
28803;BMP280;15949;55.656;37.422;2023-05-24T00:46:29;99421.94;;;14.65
28803;BMP280;15949;55.656;37.422;2023-05-24T00:51:36;99424.97;;;14.67
28803;BMP280;15949;55.656;37.422;2023-05-24T00:56:42;99432.09;;;14.67
28803;BMP280;15949;55.656;37.422;2023-05-24T01:01:48;99425.28;;;14.62
28803;BMP280;15949;55.656;37.422;2023-05-24T01:07:44;99415.13;;;14.57
28803;BMP280;15949;55.656;37.422;2023-05-24T01:12:35;99406.84;;;14.55
28803;BMP280;15949;55.656;37.422;2023-05-24T01:17:53;99413.59;;;14.56
28803;BMP280;15949;55.656;37.422;2023-05-24T01:28:26;99416.16;;;14.49
28803;BMP280;15949;55.656;37.422;2023-05-24T01:33:32;99391.72;;;14.42
28803;BMP280;15949;55.656;37.422;2023-05-24T01:38:38;99406.31;;;14.39
28803;BMP280;15949;55.656;37.422;2023-05-24T01:43:52;99403.69;;;14.39
28803;BMP280;15949;55.656;37.422;2023-05-24T01:54:12;99405.53;;;14.39
28803;BMP280;15949;55.656;37.422;2023-05-24T01:59:20;99399.84;;;14.33
28803;BMP280;15949;55.656;37.422;2023-05-24T02:04:26;99402.81;;;14.28
28803;BMP280;15949;55.656;37.422;2023-05-24T02:09:32;99397.56;;;14.28
28803;BMP280;15949;55.656;37.422;2023-05-24T02:14:38;99394.22;;;14.31
28803;BMP280;15949;55.656;37.422;2023-05-24T02:19:46;99401.31;;;14.31
28803;BMP280;15949;55.656;37.422;2023-05-24T02:24:52;99383.72;;;14.31
28803;BMP280;15949;55.656;37.422;2023-05-24T02:29:58;99382.72;;;14.39
28803;BMP280;15949;55.656;37.422;2023-05-24T02:35:04;99380.53;;;14.45
28803;BMP280;15949;55.656;37.422;2023-05-24T02:40:10;99383.16;;;14.48
28803;BMP280;15949;55.656;37.422;2023-05-24T02:45:16;99380.63;;;14.55
28803;BMP280;15949;55.656;37.422;2023-05-24T02:50:22;99369.78;;;14.60
28803;BMP280;15949;55.656;37.422;2023-05-24T02:55:28;99372.19;;;14.72
28803;BMP280;15949;55.656;37.422;2023-05-24T03:00:33;99369.56;;;14.76
28803;BMP280;15949;55.656;37.422;2023-05-24T03:05:39;99373.69;;;14.73
28803;BMP280;15949;55.656;37.422;2023-05-24T03:10:45;99380.41;;;14.74
28803;BMP280;15949;55.656;37.422;2023-05-24T03:15:50;99375.56;;;14.73
28803;BMP280;15949;55.656;37.422;2023-05-24T03:20:56;99371.88;;;14.81
28803;BMP280;15949;55.656;37.422;2023-05-24T03:26:01;99382.47;;;14.92
28803;BMP280;15949;55.656;37.422;2023-05-24T03:31:07;99361.56;;;15.06
28803;BMP280;15949;55.656;37.422;2023-05-24T03:36:13;99369.06;;;15.04
28803;BMP280;15949;55.656;37.422;2023-05-24T03:41:18;99360.84;;;15.09
28803;BMP280;15949;55.656;37.422;2023-05-24T03:46:24;99352.28;;;15.15
28803;BMP280;15949;55.656;37.422;2023-05-24T03:51:30;99347.88;;;15.30
28803;BMP280;15949;55.656;37.422;2023-05-24T03:56:36;99347.22;;;15.47
28803;BMP280;15949;55.656;37.422;2023-05-24T04:01:42;99346.91;;;15.59
28803;BMP280;15949;55.656;37.422;2023-05-24T04:06:48;99353.72;;;15.67
28803;BMP280;15949;55.656;37.422;2023-05-24T04:11:54;99348.88;;;15.69
28803;BMP280;15949;55.656;37.422;2023-05-24T04:16:59;99345.50;;;15.76
28803;BMP280;15949;55.656;37.422;2023-05-24T04:22:08;99346.31;;;15.83
28803;BMP280;15949;55.656;37.422;2023-05-24T04:27:14;99345.16;;;15.84
28803;BMP280;15949;55.656;37.422;2023-05-24T04:32:19;99350.09;;;15.96
28803;BMP280;15949;55.656;37.422;2023-05-24T04:37:25;99348.69;;;16.23
28803;BMP280;15949;55.656;37.422;2023-05-24T04:42:31;99344.97;;;16.42
28803;BMP280;15949;55.656;37.422;2023-05-24T04:47:37;99347.25;;;16.72
28803;BMP280;15949;55.656;37.422;2023-05-24T04:52:43;99334.44;;;16.91
28803;BMP280;15949;55.656;37.422;2023-05-24T04:57:48;99338.94;;;17.19
28803;BMP280;15949;55.656;37.422;2023-05-24T05:02:54;99351.72;;;17.28
28803;BMP280;15949;55.656;37.422;2023-05-24T05:08:00;99355.06;;;17.35
28803;BMP280;15949;55.656;37.422;2023-05-24T05:13:06;99371.25;;;17.44
28803;BMP280;15949;55.656;37.422;2023-05-24T05:18:12;99363.38;;;17.23
28803;BMP280;15949;55.656;37.422;2023-05-24T05:23:17;99361.47;;;17.41
28803;BMP280;15949;55.656;37.422;2023-05-24T05:28:23;99359.16;;;17.57
28803;BMP280;15949;55.656;37.422;2023-05-24T05:33:32;99357.97;;;17.72
28803;BMP280;15949;55.656;37.422;2023-05-24T05:38:37;99359.00;;;17.89
28803;BMP280;15949;55.656;37.422;2023-05-24T05:43:43;99365.81;;;17.83
28803;BMP280;15949;55.656;37.422;2023-05-24T05:48:49;99364.69;;;17.81
28803;BMP280;15949;55.656;37.422;2023-05-24T05:53:54;99358.78;;;17.55
28803;BMP280;15949;55.656;37.422;2023-05-24T05:59:00;99354.69;;;17.40
28803;BMP280;15949;55.656;37.422;2023-05-24T06:04:06;99353.47;;;17.59
28803;BMP280;15949;55.656;37.422;2023-05-24T06:09:12;99342.47;;;17.85
28803;BMP280;15949;55.656;37.422;2023-05-24T06:14:18;99346.88;;;18.02
28803;BMP280;15949;55.656;37.422;2023-05-24T06:19:26;99346.91;;;17.99
28803;BMP280;15949;55.656;37.422;2023-05-24T06:24:32;99341.19;;;18.11
28803;BMP280;15949;55.656;37.422;2023-05-24T06:29:39;99337.88;;;18.00
28803;BMP280;15949;55.656;37.422;2023-05-24T06:34:44;99338.59;;;18.07
28803;BMP280;15949;55.656;37.422;2023-05-24T06:39:50;99348.59;;;18.30
28803;BMP280;15949;55.656;37.422;2023-05-24T06:44:56;99342.38;;;18.57
28803;BMP280;15949;55.656;37.422;2023-05-24T06:50:02;99334.34;;;18.68
28803;BMP280;15949;55.656;37.422;2023-05-24T06:55:08;99345.09;;;18.47
28803;BMP280;15949;55.656;37.422;2023-05-24T07:00:15;99348.09;;;18.52
28803;BMP280;15949;55.656;37.422;2023-05-24T07:05:21;99350.88;;;18.79
28803;BMP280;15949;55.656;37.422;2023-05-24T07:10:26;99351.09;;;18.95
28803;BMP280;15949;55.656;37.422;2023-05-24T07:15:32;99351.03;;;19.02
28803;BMP280;15949;55.656;37.422;2023-05-24T07:20:38;99352.06;;;19.12
28803;BMP280;15949;55.656;37.422;2023-05-24T07:25:43;99353.50;;;19.20
28803;BMP280;15949;55.656;37.422;2023-05-24T07:30:49;99354.03;;;19.04
28803;BMP280;15949;55.656;37.422;2023-05-24T07:35:55;99356.56;;;18.74
28803;BMP280;15949;55.656;37.422;2023-05-24T07:41:02;99356.69;;;18.60
28803;BMP280;15949;55.656;37.422;2023-05-24T07:46:10;99359.19;;;18.74
28803;BMP280;15949;55.656;37.422;2023-05-24T07:51:16;99358.34;;;18.88
28803;BMP280;15949;55.656;37.422;2023-05-24T07:56:22;99365.84;;;18.93
28803;BMP280;15949;55.656;37.422;2023-05-24T08:01:29;99369.31;;;18.83
28803;BMP280;15949;55.656;37.422;2023-05-24T08:06:35;99375.34;;;18.83
28803;BMP280;15949;55.656;37.422;2023-05-24T08:11:40;99369.75;;;18.81
28803;BMP280;15949;55.656;37.422;2023-05-24T08:16:46;99371.91;;;18.90
28803;BMP280;15949;55.656;37.422;2023-05-24T08:21:54;99380.81;;;19.06
28803;BMP280;15949;55.656;37.422;2023-05-24T08:27:01;99375.94;;;19.01
28803;BMP280;15949;55.656;37.422;2023-05-24T08:32:08;99379.28;;;19.05
28803;BMP280;15949;55.656;37.422;2023-05-24T08:37:14;99374.19;;;19.25
28803;BMP280;15949;55.656;37.422;2023-05-24T08:42:24;99377.16;;;19.64
28803;BMP280;15949;55.656;37.422;2023-05-24T08:47:31;99376.75;;;19.96
28803;BMP280;15949;55.656;37.422;2023-05-24T08:52:37;99371.41;;;20.26
28803;BMP280;15949;55.656;37.422;2023-05-24T08:57:44;99375.81;;;20.59
28803;BMP280;15949;55.656;37.422;2023-05-24T09:02:52;99370.69;;;20.91
28803;BMP280;15949;55.656;37.422;2023-05-24T09:07:59;99375.09;;;21.57
28803;BMP280;15949;55.656;37.422;2023-05-24T09:13:06;99364.84;;;21.59
28803;BMP280;15949;55.656;37.422;2023-05-24T09:18:12;99366.72;;;21.39
28803;BMP280;15949;55.656;37.422;2023-05-24T09:23:17;99362.41;;;21.48
28803;BMP280;15949;55.656;37.422;2023-05-24T09:28:23;99365.41;;;21.31
28803;BMP280;15949;55.656;37.422;2023-05-24T09:33:30;99366.56;;;21.10
28803;BMP280;15949;55.656;37.422;2023-05-24T09:38:36;99363.41;;;21.15
28803;BMP280;15949;55.656;37.422;2023-05-24T09:43:47;99375.47;;;21.20
28803;BMP280;15949;55.656;37.422;2023-05-24T09:48:57;99369.69;;;21.05
28803;BMP280;15949;55.656;37.422;2023-05-24T09:54:03;99370.97;;;21.17
28803;BMP280;15949;55.656;37.422;2023-05-24T09:59:09;99370.31;;;21.13
28803;BMP280;15949;55.656;37.422;2023-05-24T10:04:15;99373.63;;;21.17
28803;BMP280;15949;55.656;37.422;2023-05-24T10:09:21;99376.47;;;21.26
28803;BMP280;15949;55.656;37.422;2023-05-24T10:14:29;99382.81;;;21.32
28803;BMP280;15949;55.656;37.422;2023-05-24T10:19:36;99384.38;;;21.10
28803;BMP280;15949;55.656;37.422;2023-05-24T10:24:46;99399.63;;;20.82
28803;BMP280;15949;55.656;37.422;2023-05-24T10:30:01;99402.38;;;20.75
28803;BMP280;15949;55.656;37.422;2023-05-24T10:35:11;99402.28;;;20.82
28803;BMP280;15949;55.656;37.422;2023-05-24T10:40:20;99410.78;;;20.93
28803;BMP280;15949;55.656;37.422;2023-05-24T10:50:32;99403.66;;;20.90
28803;BMP280;15949;55.656;37.422;2023-05-24T10:55:58;99415.25;;;20.96
28803;BMP280;15949;55.656;37.422;2023-05-24T11:01:12;99411.31;;;21.83
28803;BMP280;15949;55.656;37.422;2023-05-24T11:06:17;99414.44;;;22.62
28803;BMP280;15949;55.656;37.422;2023-05-24T11:11:27;99422.41;;;22.91
28803;BMP280;15949;55.656;37.422;2023-05-24T11:16:35;99418.00;;;22.55
28803;BMP280;15949;55.656;37.422;2023-05-24T11:21:45;99423.63;;;22.41
28803;BMP280;15949;55.656;37.422;2023-05-24T11:26:51;99426.16;;;22.48
28803;BMP280;15949;55.656;37.422;2023-05-24T11:31:59;99425.94;;;22.71
28803;BMP280;15949;55.656;37.422;2023-05-24T11:37:12;99435.28;;;22.76
28803;BMP280;15949;55.656;37.422;2023-05-24T11:42:17;99428.66;;;22.84
28803;BMP280;15949;55.656;37.422;2023-05-24T11:47:23;99420.59;;;22.88
28803;BMP280;15949;55.656;37.422;2023-05-24T11:52:30;99423.91;;;22.92
28803;BMP280;15949;55.656;37.422;2023-05-24T11:57:41;99418.19;;;22.77
28803;BMP280;15949;55.656;37.422;2023-05-24T12:02:49;99421.66;;;22.45
28803;BMP280;15949;55.656;37.422;2023-05-24T12:08:02;99417.84;;;22.30
28803;BMP280;15949;55.656;37.422;2023-05-24T12:13:20;99423.56;;;22.13
28803;BMP280;15949;55.656;37.422;2023-05-24T12:18:27;99416.91;;;22.05
28803;BMP280;15949;55.656;37.422;2023-05-24T12:23:34;99417.09;;;21.78
28803;BMP280;15949;55.656;37.422;2023-05-24T12:28:39;99409.66;;;21.53
28803;BMP280;15949;55.656;37.422;2023-05-24T12:33:46;99409.16;;;21.39
28803;BMP280;15949;55.656;37.422;2023-05-24T12:38:52;99404.69;;;21.36
28803;BMP280;15949;55.656;37.422;2023-05-24T12:43:58;99403.34;;;21.28
28803;BMP280;15949;55.656;37.422;2023-05-24T12:49:03;99398.22;;;21.37
28803;BMP280;15949;55.656;37.422;2023-05-24T12:54:09;99401.28;;;21.55
28803;BMP280;15949;55.656;37.422;2023-05-24T12:59:15;99396.75;;;21.36
28803;BMP280;15949;55.656;37.422;2023-05-24T13:04:22;99404.84;;;21.09
28803;BMP280;15949;55.656;37.422;2023-05-24T13:09:30;99413.75;;;21.19
28803;BMP280;15949;55.656;37.422;2023-05-24T13:14:37;99418.56;;;21.24
28803;BMP280;15949;55.656;37.422;2023-05-24T13:19:43;99427.53;;;21.30
28803;BMP280;15949;55.656;37.422;2023-05-24T13:24:48;99411.44;;;21.40
28803;BMP280;15949;55.656;37.422;2023-05-24T13:29:54;99410.22;;;21.45
28803;BMP280;15949;55.656;37.422;2023-05-24T13:35:00;99410.81;;;21.33
28803;BMP280;15949;55.656;37.422;2023-05-24T13:40:06;99418.28;;;21.38
28803;BMP280;15949;55.656;37.422;2023-05-24T13:45:12;99418.06;;;21.29
28803;BMP280;15949;55.656;37.422;2023-05-24T13:50:18;99425.41;;;21.21
28803;BMP280;15949;55.656;37.422;2023-05-24T13:55:30;99420.31;;;21.11
28803;BMP280;15949;55.656;37.422;2023-05-24T14:00:36;99416.66;;;21.04
28803;BMP280;15949;55.656;37.422;2023-05-24T14:05:42;99421.16;;;21.27
28803;BMP280;15949;55.656;37.422;2023-05-24T14:10:48;99415.34;;;21.71
28803;BMP280;15949;55.656;37.422;2023-05-24T14:15:54;99412.41;;;21.85
28803;BMP280;15949;55.656;37.422;2023-05-24T14:21:00;99418.13;;;21.84
28803;BMP280;15949;55.656;37.422;2023-05-24T14:26:05;99412.78;;;21.68
28803;BMP280;15949;55.656;37.422;2023-05-24T14:31:11;99407.59;;;21.61
28803;BMP280;15949;55.656;37.422;2023-05-24T14:36:17;99413.72;;;21.58
28803;BMP280;15949;55.656;37.422;2023-05-24T14:41:22;99413.00;;;21.38
28803;BMP280;15949;55.656;37.422;2023-05-24T14:46:28;99414.75;;;21.25
28803;BMP280;15949;55.656;37.422;2023-05-24T14:51:34;99419.91;;;21.12
28803;BMP280;15949;55.656;37.422;2023-05-24T14:56:39;99426.09;;;21.05
28803;BMP280;15949;55.656;37.422;2023-05-24T15:01:45;99422.50;;;20.92
28803;BMP280;15949;55.656;37.422;2023-05-24T15:06:51;99420.06;;;20.82
28803;BMP280;15949;55.656;37.422;2023-05-24T15:11:57;99420.53;;;20.77
28803;BMP280;15949;55.656;37.422;2023-05-24T15:17:03;99415.84;;;20.61
28803;BMP280;15949;55.656;37.422;2023-05-24T15:22:08;99410.16;;;20.40
28803;BMP280;15949;55.656;37.422;2023-05-24T15:27:14;99413.75;;;20.26
28803;BMP280;15949;55.656;37.422;2023-05-24T15:32:20;99412.34;;;20.18
28803;BMP280;15949;55.656;37.422;2023-05-24T15:37:26;99430.69;;;20.05
28803;BMP280;15949;55.656;37.422;2023-05-24T15:42:31;99434.22;;;19.95
28803;BMP280;15949;55.656;37.422;2023-05-24T15:47:37;99436.22;;;19.88
28803;BMP280;15949;55.656;37.422;2023-05-24T15:52:44;99429.94;;;19.75
28803;BMP280;15949;55.656;37.422;2023-05-24T15:57:50;99428.09;;;19.68
28803;BMP280;15949;55.656;37.422;2023-05-24T16:02:56;99429.75;;;19.59
28803;BMP280;15949;55.656;37.422;2023-05-24T16:08:02;99425.63;;;19.54
28803;BMP280;15949;55.656;37.422;2023-05-24T16:13:08;99434.03;;;19.46
28803;BMP280;15949;55.656;37.422;2023-05-24T16:18:14;99431.81;;;19.41
28803;BMP280;15949;55.656;37.422;2023-05-24T16:23:22;99428.13;;;19.34
28803;BMP280;15949;55.656;37.422;2023-05-24T16:28:28;99420.25;;;19.27
28803;BMP280;15949;55.656;37.422;2023-05-24T16:33:33;99422.22;;;19.20
28803;BMP280;15949;55.656;37.422;2023-05-24T16:38:39;99422.28;;;19.09
28803;BMP280;15949;55.656;37.422;2023-05-24T16:43:45;99432.94;;;19.02
28803;BMP280;15949;55.656;37.422;2023-05-24T16:48:50;99431.84;;;18.96
28803;BMP280;15949;55.656;37.422;2023-05-24T16:53:56;99433.06;;;18.88
28803;BMP280;15949;55.656;37.422;2023-05-24T16:59:02;99434.66;;;18.75
28803;BMP280;15949;55.656;37.422;2023-05-24T17:04:08;99451.34;;;18.65
28803;BMP280;15949;55.656;37.422;2023-05-24T17:09:14;99451.41;;;18.51
28803;BMP280;15949;55.656;37.422;2023-05-24T17:14:20;99454.47;;;18.42
28803;BMP280;15949;55.656;37.422;2023-05-24T17:19:26;99465.84;;;18.32
28803;BMP280;15949;55.656;37.422;2023-05-24T17:24:31;99468.16;;;18.20
28803;BMP280;15949;55.656;37.422;2023-05-24T17:29:37;99468.19;;;18.13
28803;BMP280;15949;55.656;37.422;2023-05-24T17:34:43;99471.59;;;18.06
28803;BMP280;15949;55.656;37.422;2023-05-24T17:39:48;99478.78;;;18.02
28803;BMP280;15949;55.656;37.422;2023-05-24T17:44:56;99492.78;;;17.96
28803;BMP280;15949;55.656;37.422;2023-05-24T17:50:02;99495.06;;;17.87
28803;BMP280;15949;55.656;37.422;2023-05-24T17:55:08;99492.78;;;17.82
28803;BMP280;15949;55.656;37.422;2023-05-24T18:00:14;99499.22;;;17.73
28803;BMP280;15949;55.656;37.422;2023-05-24T18:05:20;99500.34;;;17.72
28803;BMP280;15949;55.656;37.422;2023-05-24T18:10:26;99503.00;;;17.69
28803;BMP280;15949;55.656;37.422;2023-05-24T18:15:31;99508.25;;;17.65
28803;BMP280;15949;55.656;37.422;2023-05-24T18:20:37;99506.75;;;17.57
28803;BMP280;15949;55.656;37.422;2023-05-24T18:25:43;99506.75;;;17.57
28803;BMP280;15949;55.656;37.422;2023-05-24T18:30:51;99509.00;;;17.59
28803;BMP280;15949;55.656;37.422;2023-05-24T18:35:57;99505.25;;;17.56
28803;BMP280;15949;55.656;37.422;2023-05-24T18:41:03;99510.88;;;17.51
28803;BMP280;15949;55.656;37.422;2023-05-24T18:46:09;99509.78;;;17.52
28803;BMP280;15949;55.656;37.422;2023-05-24T18:51:19;99508.66;;;17.50
28803;BMP280;15949;55.656;37.422;2023-05-24T18:56:24;99510.53;;;17.35
28803;BMP280;15949;55.656;37.422;2023-05-24T19:01:30;99520.31;;;17.31
28803;BMP280;15949;55.656;37.422;2023-05-24T19:06:36;99519.56;;;17.31
28803;BMP280;15949;55.656;37.422;2023-05-24T19:11:41;99522.56;;;17.29
28803;BMP280;15949;55.656;37.422;2023-05-24T19:16:48;99512.78;;;17.23
28803;BMP280;15949;55.656;37.422;2023-05-24T19:21:54;99524.81;;;17.13
28803;BMP280;15949;55.656;37.422;2023-05-24T19:27:00;99521.78;;;17.04
28803;BMP280;15949;55.656;37.422;2023-05-24T19:32:06;99508.22;;;16.77
28803;BMP280;15949;55.656;37.422;2023-05-24T19:37:12;99506.63;;;16.52
28803;BMP280;15949;55.656;37.422;2023-05-24T19:42:18;99495.63;;;16.29
28803;BMP280;15949;55.656;37.422;2023-05-24T19:47:23;99498.19;;;16.14
28803;BMP280;15949;55.656;37.422;2023-05-24T19:52:29;99493.28;;;16.06
28803;BMP280;15949;55.656;37.422;2023-05-24T19:57:34;99493.97;;;15.99
28803;BMP280;15949;55.656;37.422;2023-05-24T20:02:40;99505.94;;;15.90
28803;BMP280;15949;55.656;37.422;2023-05-24T20:07:46;99500.97;;;15.81
28803;BMP280;15949;55.656;37.422;2023-05-24T20:12:51;99500.94;;;15.74
28803;BMP280;15949;55.656;37.422;2023-05-24T20:17:57;99493.34;;;15.62
28803;BMP280;15949;55.656;37.422;2023-05-24T20:23:03;99496.25;;;15.50
28803;BMP280;15949;55.656;37.422;2023-05-24T20:28:08;99494.63;;;15.35
28803;BMP280;15949;55.656;37.422;2023-05-24T20:33:14;99500.09;;;15.19
28803;BMP280;15949;55.656;37.422;2023-05-24T20:38:20;99498.97;;;15.17
28803;BMP280;15949;55.656;37.422;2023-05-24T20:43:27;99500.94;;;14.90
28803;BMP280;15949;55.656;37.422;2023-05-24T20:48:33;99508.25;;;14.74
28803;BMP280;15949;55.656;37.422;2023-05-24T20:53:38;99504.56;;;14.78
28803;BMP280;15949;55.656;37.422;2023-05-24T20:58:44;99503.06;;;14.77
28803;BMP280;15949;55.656;37.422;2023-05-24T21:03:50;99502.13;;;14.59
28803;BMP280;15949;55.656;37.422;2023-05-24T21:08:56;99501.91;;;14.45
28803;BMP280;15949;55.656;37.422;2023-05-24T21:14:03;99502.56;;;14.39
28803;BMP280;15949;55.656;37.422;2023-05-24T21:19:08;99511.41;;;14.27
28803;BMP280;15949;55.656;37.422;2023-05-24T21:24:14;99507.38;;;14.07
28803;BMP280;15949;55.656;37.422;2023-05-24T21:29:20;99506.44;;;13.92
28803;BMP280;15949;55.656;37.422;2023-05-24T21:34:26;99498.06;;;13.83
28803;BMP280;15949;55.656;37.422;2023-05-24T21:39:32;99489.81;;;13.85
28803;BMP280;15949;55.656;37.422;2023-05-24T21:44:38;99482.41;;;13.90
28803;BMP280;15949;55.656;37.422;2023-05-24T21:49:43;99477.53;;;13.89
28803;BMP280;15949;55.656;37.422;2023-05-24T22:00:58;99451.50;;;13.73
28803;BMP280;15949;55.656;37.422;2023-05-24T22:06:04;99453.25;;;13.66
28803;BMP280;15949;55.656;37.422;2023-05-24T22:11:10;99453.66;;;13.68
28803;BMP280;15949;55.656;37.422;2023-05-24T22:16:15;99449.16;;;13.68
28803;BMP280;15949;55.656;37.422;2023-05-24T22:21:21;99449.22;;;13.72
28803;BMP280;15949;55.656;37.422;2023-05-24T22:26:27;99453.66;;;13.68
28803;BMP280;15949;55.656;37.422;2023-05-24T22:31:32;99457.47;;;13.74
28803;BMP280;15949;55.656;37.422;2023-05-24T22:36:38;99468.78;;;13.78
28803;BMP280;15949;55.656;37.422;2023-05-24T22:41:44;99469.56;;;13.82
28803;BMP280;15949;55.656;37.422;2023-05-24T22:46:49;99477.84;;;13.84
28803;BMP280;15949;55.656;37.422;2023-05-24T22:51:57;99490.94;;;13.84
28803;BMP280;15949;55.656;37.422;2023-05-24T22:57:03;99483.16;;;13.65
28803;BMP280;15949;55.656;37.422;2023-05-24T23:02:09;99489.00;;;13.58
28803;BMP280;15949;55.656;37.422;2023-05-24T23:07:15;99490.84;;;13.54
28803;BMP280;15949;55.656;37.422;2023-05-24T23:12:21;99491.63;;;13.58
28803;BMP280;15949;55.656;37.422;2023-05-24T23:17:26;99483.84;;;13.62
28803;BMP280;15949;55.656;37.422;2023-05-24T23:22:32;99482.22;;;13.54
28803;BMP280;15949;55.656;37.422;2023-05-24T23:27:38;99480.16;;;13.43
28803;BMP280;15949;55.656;37.422;2023-05-24T23:32:45;99483.03;;;13.35
28803;BMP280;15949;55.656;37.422;2023-05-24T23:37:50;99486.06;;;13.37
28803;BMP280;15949;55.656;37.422;2023-05-24T23:42:58;99485.31;;;13.36
28803;BMP280;15949;55.656;37.422;2023-05-24T23:48:03;99477.97;;;13.45
28803;BMP280;15949;55.656;37.422;2023-05-24T23:53:09;99476.75;;;13.39
28803;BMP280;15949;55.656;37.422;2023-05-24T23:58:15;99479.50;;;13.47
